Time,TemperatureF,DewpointF,PressureIn,WindDirection,WindDirectionDegrees,WindSpeedMPH,WindSpeedGustMPH,Humidity,HourlyPrecipIn,Conditions,Clouds,dailyrainin,SoftwareType,DateUTC
2013-09-11 00:00:00,79.0,67.9,29.70,ENE,67,10.0,13.0,69,0.00,,,0.00,Weather View 32 v70,2013-09-11 04:00:00,
2013-09-11 00:05:00,79.0,68.8,29.70,ENE,67,9.0,13.0,71,0.00,,,0.00,Weather View 32 v70,2013-09-11 04:05:00,
2013-09-11 00:10:00,79.0,67.9,29.70,ENE,67,9.0,13.0,69,0.00,,,0.00,Weather View 32 v70,2013-09-11 04:10:00,
2013-09-11 00:15:00,79.0,68.8,29.71,ENE,67,9.0,13.0,71,0.00,,,0.00,Weather View 32 v70,2013-09-11 04:15:00,
2013-09-11 00:20:00,79.0,67.9,29.71,ENE,67,9.0,13.0,69,0.00,,,0.00,Weather View 32 v70,2013-09-11 04:20:00,
2013-09-11 00:25:00,79.0,68.8,29.69,ENE,67,8.0,13.0,71,0.00,,,0.00,Weather View 32 v70,2013-09-11 04:25:00,
2013-09-11 00:30:00,79.0,67.9,29.69,ENE,67,8.0,13.0,69,0.00,,,0.00,Weather View 32 v70,2013-09-11 04:30:00,
2013-09-11 00:35:00,79.0,68.8,29.69,ENE,67,9.0,13.0,71,0.00,,,0.00,Weather View 32 v70,2013-09-11 04:35:00,
2013-09-11 00:45:00,79.0,68.8,29.69,ENE,67,7.0,13.0,71,0.00,,,0.00,Weather View 32 v70,2013-09-11 04:45:00,
2013-09-11 00:50:00,79.0,67.9,29.69,ENE,67,9.0,13.0,69,0.00,,,0.00,Weather View 32 v70,2013-09-11 04:50:00,
2013-09-11 00:55:00,79.0,68.8,29.70,ENE,67,8.0,13.0,71,0.00,,,0.00,Weather View 32 v70,2013-09-11 04:55:00,
2013-09-11 01:00:00,79.0,67.9,29.70,ENE,67,6.0,13.0,69,0.00,,,0.00,Weather View 32 v70,2013-09-11 05:00:00,
2013-09-11 01:05:00,79.0,69.2,29.69,ENE,67,7.0,13.0,72,0.00,,,0.00,Weather View 32 v70,2013-09-11 05:05:00,
2013-09-11 01:10:00,79.0,67.9,29.69,ENE,67,8.0,13.0,69,0.00,,,0.00,Weather View 32 v70,2013-09-11 05:10:00,
2013-09-11 01:15:00,79.0,69.2,29.69,ENE,67,7.0,12.0,72,0.00,,,0.00,Weather View 32 v70,2013-09-11 05:15:00,
2013-09-11 01:25:00,79.0,69.2,29.70,ENE,67,8.0,12.0,72,0.00,,,0.00,Weather View 32 v70,2013-09-11 05:25:00,
2013-09-11 01:30:00,79.0,67.9,29.70,ENE,67,6.0,12.0,69,0.00,,,0.00,Weather View 32 v70,2013-09-11 05:30:00,
2013-09-11 01:40:00,79.0,68.3,29.68,ENE,67,8.0,11.0,70,0.00,,,0.00,Weather View 32 v70,2013-09-11 05:40:00,
2013-09-11 01:45:00,79.0,69.2,29.69,ENE,67,6.0,11.0,72,0.00,,,0.00,Weather View 32 v70,2013-09-11 05:45:00,
2013-09-11 01:50:00,79.0,68.3,29.69,ENE,67,7.0,11.0,70,0.00,,,0.00,Weather View 32 v70,2013-09-11 05:50:00,
2013-09-11 01:55:00,79.0,69.2,29.68,ENE,67,6.0,11.0,72,0.00,,,0.00,Weather View 32 v70,2013-09-11 05:55:00,
2013-09-11 02:00:00,79.0,67.9,29.68,ENE,67,1.0,11.0,69,0.00,,,0.00,Weather View 32 v70,2013-09-11 06:00:00,
2013-09-11 02:05:00,78.0,67.8,29.69,NNW,337,3.0,11.0,71,0.00,,,0.00,Weather View 32 v70,2013-09-11 06:05:00,
2013-09-11 02:10:00,78.0,66.1,29.69,NNW,337,4.0,11.0,67,0.00,,,0.00,Weather View 32 v70,2013-09-11 06:10:00,
2013-09-11 02:15:00,77.0,66.0,29.69,NNW,337,3.0,11.0,69,0.00,,,0.00,Weather View 32 v70,2013-09-11 06:15:00,
2013-09-11 02:20:00,76.0,62.9,29.69,NNW,337,6.0,11.0,64,0.00,,,0.00,Weather View 32 v70,2013-09-11 06:20:00,
2013-09-11 02:25:00,76.0,64.2,29.72,NNW,337,7.0,11.0,67,0.00,,,0.00,Weather View 32 v70,2013-09-11 06:25:00,
2013-09-11 02:30:00,76.0,61.5,29.72,NNW,337,6.0,10.0,61,0.00,,,0.00,Weather View 32 v70,2013-09-11 06:30:00,
2013-09-11 02:35:00,75.0,62.0,29.70,NNW,337,4.0,10.0,64,0.00,,,0.00,Weather View 32 v70,2013-09-11 06:35:00,
2013-09-11 02:45:00,75.0,61.5,29.71,NNW,337,5.0,10.0,63,0.00,,,0.00,Weather View 32 v70,2013-09-11 06:45:00,
2013-09-11 02:50:00,75.0,59.2,29.71,NNW,337,6.0,10.0,58,0.00,,,0.00,Weather View 32 v70,2013-09-11 06:50:00,
2013-09-11 02:55:00,75.0,61.5,29.71,NNW,337,3.0,10.0,63,0.00,,,0.00,Weather View 32 v70,2013-09-11 06:55:00,
2013-09-11 03:00:00,75.0,58.7,29.71,NNW,337,5.0,7.0,57,0.00,,,0.00,Weather View 32 v70,2013-09-11 07:00:00,
2013-09-11 03:05:00,75.0,61.1,29.69,NNW,337,1.0,7.0,62,0.00,,,0.00,Weather View 32 v70,2013-09-11 07:05:00,
2013-09-11 03:10:00,75.0,58.2,29.69,NNW,337,6.0,7.0,56,0.00,,,0.00,Weather View 32 v70,2013-09-11 07:10:00,
2013-09-11 03:15:00,75.0,61.1,29.71,NNW,337,5.0,7.0,62,0.00,,,0.00,Weather View 32 v70,2013-09-11 07:15:00,
2013-09-11 03:20:00,75.0,58.2,29.71,NNW,337,7.0,7.0,56,0.00,,,0.00,Weather View 32 v70,2013-09-11 07:20:00,
2013-09-11 03:30:00,74.0,56.8,29.70,NNW,337,5.0,8.0,55,0.00,,,0.00,Weather View 32 v70,2013-09-11 07:30:00,
2013-09-11 03:40:00,74.0,55.7,29.70,NNW,337,3.0,8.0,53,0.00,,,0.00,Weather View 32 v70,2013-09-11 07:40:00,
2013-09-11 03:45:00,74.0,59.2,29.72,NNW,337,4.0,8.0,60,0.00,,,0.00,Weather View 32 v70,2013-09-11 07:45:00,
2013-09-11 03:50:00,74.0,55.7,29.72,NNW,337,3.0,8.0,53,0.00,,,0.00,Weather View 32 v70,2013-09-11 07:50:00,
2013-09-11 03:55:00,74.0,59.2,29.72,NNW,337,4.0,8.0,60,0.00,,,0.00,Weather View 32 v70,2013-09-11 07:55:00,
2013-09-11 04:00:00,74.0,55.2,29.72,NNW,337,3.0,8.0,52,0.00,,,0.00,Weather View 32 v70,2013-09-11 08:00:00,
2013-09-11 04:10:00,74.0,55.2,29.70,NNW,337,4.0,8.0,52,0.00,,,0.00,Weather View 32 v70,2013-09-11 08:10:00,
2013-09-11 04:15:00,74.0,59.2,29.72,NNW,337,4.0,8.0,60,0.00,,,0.00,Weather View 32 v70,2013-09-11 08:15:00,
2013-09-11 04:20:00,73.0,53.7,29.72,NNW,337,3.0,8.0,51,0.00,,,0.00,Weather View 32 v70,2013-09-11 08:20:00,
2013-09-11 04:25:00,74.0,58.7,29.71,NNW,337,4.0,8.0,59,0.00,,,0.00,Weather View 32 v70,2013-09-11 08:25:00,
2013-09-11 04:35:00,73.0,57.3,29.71,NNW,337,4.0,6.0,58,0.00,,,0.00,Weather View 32 v70,2013-09-11 08:35:00,
2013-09-11 04:40:00,73.0,53.2,29.71,NNW,337,1.0,6.0,50,0.00,,,0.00,Weather View 32 v70,2013-09-11 08:40:00,
2013-09-11 04:45:00,73.0,57.3,29.71,NNW,337,3.0,6.0,58,0.00,,,0.00,Weather View 32 v70,2013-09-11 08:45:00,
2013-09-11 04:50:00,73.0,53.2,29.71,NNW,337,2.0,6.0,50,0.00,,,0.00,Weather View 32 v70,2013-09-11 08:50:00,
2013-09-11 04:55:00,73.0,57.3,29.71,NNW,337,4.0,6.0,58,0.00,,,0.00,Weather View 32 v70,2013-09-11 08:55:00,
2013-09-11 05:00:00,73.0,52.7,29.71,NNW,337,4.0,6.0,49,0.00,,,0.00,Weather View 32 v70,2013-09-11 09:00:00,
2013-09-11 05:10:00,72.0,51.2,29.72,NNW,337,3.0,5.0,48,0.00,,,0.00,Weather View 32 v70,2013-09-11 09:10:00,
2013-09-11 05:15:00,73.0,56.8,29.70,NNW,337,3.0,6.0,57,0.00,,,0.00,Weather View 32 v70,2013-09-11 09:15:00,
2013-09-11 05:20:00,72.0,51.2,29.70,NNW,337,4.0,6.0,48,0.00,,,0.00,Weather View 32 v70,2013-09-11 09:20:00,
2013-09-11 05:25:00,72.0,54.9,29.73,NNW,337,5.0,6.0,55,0.00,,,0.00,Weather View 32 v70,2013-09-11 09:25:00,
2013-09-11 05:35:00,72.0,54.9,29.71,NNW,337,4.0,6.0,55,0.00,,,0.00,Weather View 32 v70,2013-09-11 09:35:00,
2013-09-11 05:40:00,72.0,49.4,29.71,NNW,337,4.0,6.0,45,0.00,,,0.00,Weather View 32 v70,2013-09-11 09:40:00,
2013-09-11 05:45:00,72.0,54.9,29.71,NNW,337,4.0,6.0,55,0.00,,,0.00,Weather View 32 v70,2013-09-11 09:45:00,
2013-09-11 05:50:00,71.0,49.7,29.71,NNW,337,4.0,6.0,47,0.00,,,0.00,Weather View 32 v70,2013-09-11 09:50:00,
2013-09-11 05:55:00,72.0,54.9,29.73,NNW,337,5.0,6.0,55,0.00,,,0.00,Weather View 32 v70,2013-09-11 09:55:00,
2013-09-11 06:00:00,71.0,48.5,29.73,NNW,337,4.0,6.0,45,0.00,,,0.00,Weather View 32 v70,2013-09-11 10:00:00,
2013-09-11 06:05:00,71.0,54.0,29.74,NNW,337,6.0,7.0,55,0.00,,,0.00,Weather View 32 v70,2013-09-11 10:05:00,
2013-09-11 06:10:00,71.0,48.5,29.74,NNW,337,5.0,7.0,45,0.00,,,0.00,Weather View 32 v70,2013-09-11 10:10:00,
2013-09-11 06:15:00,71.0,54.0,29.74,NNW,337,6.0,7.0,55,0.00,,,0.00,Weather View 32 v70,2013-09-11 10:15:00,
2013-09-11 06:25:00,71.0,54.0,29.73,NNW,337,2.0,7.0,55,0.00,,,0.00,Weather View 32 v70,2013-09-11 10:25:00,
2013-09-11 06:30:00,71.0,48.5,29.73,NNW,337,4.0,7.0,45,0.00,,,0.00,Weather View 32 v70,2013-09-11 10:30:00,
2013-09-11 06:40:00,70.0,47.6,29.73,NNW,337,2.0,8.0,45,0.00,,,0.00,Weather View 32 v70,2013-09-11 10:40:00,
2013-09-11 06:45:00,71.0,53.5,29.72,NNW,337,6.0,8.0,54,0.00,,,0.00,Weather View 32 v70,2013-09-11 10:45:00,
2013-09-11 06:50:00,71.0,48.5,29.72,NNW,337,3.0,8.0,45,0.00,,,0.00,Weather View 32 v70,2013-09-11 10:50:00,
2013-09-11 06:55:00,71.0,53.5,29.72,NNW,337,3.0,8.0,54,0.00,,,0.00,Weather View 32 v70,2013-09-11 10:55:00,
2013-09-11 07:00:00,71.0,48.5,29.72,NNW,337,7.0,8.0,45,0.00,,,0.00,Weather View 32 v70,2013-09-11 11:00:00,
2013-09-11 07:10:00,71.0,47.9,29.73,NNW,337,3.0,9.0,44,0.00,,,0.00,Weather View 32 v70,2013-09-11 11:10:00,
2013-09-11 07:15:00,71.0,53.0,29.73,NNW,337,6.0,9.0,53,0.00,,,0.00,Weather View 32 v70,2013-09-11 11:15:00,
2013-09-11 07:20:00,71.0,47.9,29.73,NNW,337,6.0,9.0,44,0.00,,,0.00,Weather View 32 v70,2013-09-11 11:20:00,
2013-09-11 07:25:00,71.0,53.0,29.74,NNW,337,6.0,9.0,53,0.00,,,0.00,Weather View 32 v70,2013-09-11 11:25:00,
2013-09-11 07:30:00,71.0,47.3,29.74,NNW,337,7.0,9.0,43,0.00,,,0.00,Weather View 32 v70,2013-09-11 11:30:00,
2013-09-11 07:35:00,71.0,53.0,29.75,NNW,337,2.0,9.0,53,0.00,,,0.00,Weather View 32 v70,2013-09-11 11:35:00,
2013-09-11 07:40:00,72.0,48.2,29.75,NNW,337,6.0,9.0,43,0.00,,,0.00,Weather View 32 v70,2013-09-11 11:40:00,
2013-09-11 07:45:00,72.0,53.9,29.73,NNW,337,4.0,9.0,53,0.00,,,0.00,Weather View 32 v70,2013-09-11 11:45:00,
2013-09-11 07:50:00,72.0,48.2,29.73,NNW,337,4.0,9.0,43,0.00,,,0.00,Weather View 32 v70,2013-09-11 11:50:00,
2013-09-11 08:00:00,73.0,50.3,29.73,NNW,337,6.0,9.0,45,0.00,,,0.00,Weather View 32 v70,2013-09-11 12:00:00,
2013-09-11 08:05:00,73.0,54.8,29.73,NNW,337,7.0,9.0,53,0.00,,,0.00,Weather View 32 v70,2013-09-11 12:05:00,
2013-09-11 08:10:00,73.0,50.3,29.73,NNW,337,2.0,9.0,45,0.00,,,0.00,Weather View 32 v70,2013-09-11 12:10:00,
2013-09-11 08:15:00,73.0,55.8,29.73,NNW,337,7.0,9.0,55,0.00,,,0.00,Weather View 32 v70,2013-09-11 12:15:00,
2013-09-11 08:20:00,73.0,50.9,29.73,NNW,337,7.0,9.0,46,0.00,,,0.00,Weather View 32 v70,2013-09-11 12:20:00,
2013-09-11 08:25:00,73.0,56.3,29.73,NNW,337,2.0,9.0,56,0.00,,,0.00,Weather View 32 v70,2013-09-11 12:25:00,
2013-09-11 08:30:00,73.0,52.1,29.73,NNW,337,7.0,9.0,48,0.00,,,0.00,Weather View 32 v70,2013-09-11 12:30:00,
2013-09-11 08:35:00,73.0,56.3,29.73,NNW,337,7.0,9.0,56,0.00,,,0.00,Weather View 32 v70,2013-09-11 12:35:00,
2013-09-11 08:40:00,73.0,52.7,29.73,NNW,337,6.0,9.0,49,0.00,,,0.00,Weather View 32 v70,2013-09-11 12:40:00,
2013-09-11 08:50:00,74.0,54.1,29.72,NNW,337,5.0,10.0,50,0.00,,,0.00,Weather View 32 v70,2013-09-11 12:50:00,
2013-09-11 08:55:00,74.0,58.2,29.73,NNW,337,6.0,10.0,58,0.00,,,0.00,Weather View 32 v70,2013-09-11 12:55:00,
2013-09-11 09:00:00,74.0,54.1,29.73,NNW,337,5.0,10.0,50,0.00,,,0.00,Weather View 32 v70,2013-09-11 13:00:00,
2013-09-11 09:05:00,74.0,58.2,29.72,NNW,337,7.0,10.0,58,0.00,,,0.00,Weather View 32 v70,2013-09-11 13:05:00,
2013-09-11 09:10:00,74.0,54.7,29.72,NNW,337,6.0,10.0,51,0.00,,,0.00,Weather View 32 v70,2013-09-11 13:10:00,
2013-09-11 09:15:00,74.0,58.2,29.73,NNW,337,6.0,10.0,58,0.00,,,0.00,Weather View 32 v70,2013-09-11 13:15:00,
2013-09-11 09:20:00,74.0,54.7,29.73,NNW,337,6.0,10.0,51,0.00,,,0.00,Weather View 32 v70,2013-09-11 13:20:00,
2013-09-11 09:25:00,75.0,59.7,29.73,NNW,337,7.0,10.0,59,0.00,,,0.00,Weather View 32 v70,2013-09-11 13:25:00,
2013-09-11 09:30:00,75.0,55.6,29.73,NNW,337,7.0,10.0,51,0.00,,,0.00,Weather View 32 v70,2013-09-11 13:30:00,
2013-09-11 09:35:00,75.0,59.2,29.72,NNW,337,6.0,10.0,58,0.00,,,0.00,Weather View 32 v70,2013-09-11 13:35:00,
2013-09-11 09:45:00,77.0,62.5,29.72,NNW,337,2.0,10.0,61,0.00,,,0.00,Weather View 32 v70,2013-09-11 13:45:00,
2013-09-11 09:55:00,78.0,63.9,29.71,NNW,337,7.0,9.0,62,0.00,,,0.00,Weather View 32 v70,2013-09-11 13:55:00,
2013-09-11 10:00:00,78.0,61.0,29.71,NNW,337,3.0,9.0,56,0.00,,,0.00,Weather View 32 v70,2013-09-11 14:00:00,
2013-09-11 10:05:00,79.0,65.3,29.71,WSW,247,3.0,9.0,63,0.00,,,0.00,Weather View 32 v70,2013-09-11 14:05:00,
2013-09-11 10:10:00,79.0,62.9,29.71,WSW,247,5.0,9.0,58,0.00,,,0.00,Weather View 32 v70,2013-09-11 14:10:00,
2013-09-11 10:15:00,80.0,67.1,29.70,NNW,337,6.0,10.0,65,0.00,,,0.00,Weather View 32 v70,2013-09-11 14:15:00,
2013-09-11 10:20:00,79.0,63.4,29.70,ENE,67,8.0,12.0,59,0.00,,,0.00,Weather View 32 v70,2013-09-11 14:20:00,
2013-09-11 10:25:00,79.0,63.9,29.70,ENE,67,9.0,12.0,60,0.00,,,0.00,Weather View 32 v70,2013-09-11 14:25:00,
2013-09-11 10:35:00,79.0,64.8,29.73,ENE,67,10.0,12.0,62,0.00,,,0.00,Weather View 32 v70,2013-09-11 14:35:00,
2013-09-11 10:40:00,79.0,64.3,29.71,ENE,67,12.0,14.0,61,0.00,,,0.00,Weather View 32 v70,2013-09-11 14:40:00,
2013-09-11 10:45:00,79.0,64.3,29.71,ENE,67,12.0,14.0,61,0.00,,,0.00,Weather View 32 v70,2013-09-11 14:45:00,
2013-09-11 10:55:00,79.0,63.9,29.71,ENE,67,10.0,14.0,60,0.00,,,0.00,Weather View 32 v70,2013-09-11 14:55:00,
2013-09-11 11:00:00,79.0,63.9,29.73,ENE,67,11.0,14.0,60,0.00,,,0.00,Weather View 32 v70,2013-09-11 15:00:00,
2013-09-11 11:05:00,79.0,63.9,29.73,ENE,67,7.0,15.0,60,0.00,,,0.00,Weather View 32 v70,2013-09-11 15:05:00,
2013-09-11 11:15:00,79.0,63.9,29.71,ENE,67,12.0,15.0,60,0.00,,,0.00,Weather View 32 v70,2013-09-11 15:15:00,
2013-09-11 11:20:00,79.0,63.9,29.71,ENE,67,11.0,15.0,60,0.00,,,0.00,Weather View 32 v70,2013-09-11 15:20:00,
2013-09-11 11:25:00,79.0,64.3,29.71,ENE,67,12.0,15.0,61,0.00,,,0.00,Weather View 32 v70,2013-09-11 15:25:00,
2013-09-11 11:30:00,79.0,65.3,29.71,ENE,67,12.0,15.0,63,0.00,,,0.00,Weather View 32 v70,2013-09-11 15:30:00,
2013-09-11 11:35:00,79.0,65.7,29.71,ENE,67,10.0,15.0,64,0.00,,,0.00,Weather View 32 v70,2013-09-11 15:35:00,
2013-09-11 11:45:00,80.0,66.7,29.70,ENE,67,12.0,15.0,64,0.00,,,0.00,Weather View 32 v70,2013-09-11 15:45:00,
2013-09-11 11:50:00,80.0,66.7,29.70,ENE,67,9.0,16.0,64,0.00,,,0.00,Weather View 32 v70,2013-09-11 15:50:00,
2013-09-11 11:55:00,79.0,65.7,29.70,ENE,67,13.0,16.0,64,0.00,,,0.00,Weather View 32 v70,2013-09-11 15:55:00,
2013-09-11 12:00:00,79.0,65.7,29.70,ENE,67,9.0,16.0,64,0.00,,,0.00,Weather View 32 v70,2013-09-11 16:00:00,
2013-09-11 12:10:00,79.0,66.2,29.69,ENE,67,13.0,16.0,65,0.00,,,0.00,Weather View 32 v70,2013-09-11 16:10:00,
2013-09-11 12:15:00,79.0,66.2,29.69,ENE,67,10.0,16.0,65,0.00,,,0.00,Weather View 32 v70,2013-09-11 16:15:00,
2013-09-11 12:20:00,80.0,67.1,29.71,ENE,67,10.0,16.0,65,0.00,,,0.00,Weather View 32 v70,2013-09-11 16:20:00,
2013-09-11 12:25:00,79.0,66.2,29.71,ENE,67,9.0,16.0,65,0.00,,,0.00,Weather View 32 v70,2013-09-11 16:25:00,
2013-09-11 12:30:00,79.0,66.2,29.69,ENE,67,13.0,16.0,65,0.00,,,0.00,Weather View 32 v70,2013-09-11 16:30:00,
2013-09-11 12:35:00,79.0,66.2,29.69,ENE,67,13.0,16.0,65,0.00,,,0.00,Weather View 32 v70,2013-09-11 16:35:00,
2013-09-11 12:40:00,79.0,66.6,29.69,ENE,67,13.0,17.0,66,0.00,,,0.00,Weather View 32 v70,2013-09-11 16:40:00,
2013-09-11 12:45:00,79.0,66.6,29.69,ENE,67,14.0,17.0,66,0.00,,,0.00,Weather View 32 v70,2013-09-11 16:45:00,
2013-09-11 12:50:00,80.0,67.6,29.71,ENE,67,12.0,17.0,66,0.00,,,0.00,Weather View 32 v70,2013-09-11 16:50:00,
2013-09-11 12:55:00,80.0,67.6,29.71,ENE,67,9.0,17.0,66,0.00,,,0.00,Weather View 32 v70,2013-09-11 16:55:00,
2013-09-11 13:00:00,79.0,66.6,29.69,ENE,67,13.0,17.0,66,0.00,,,0.00,Weather View 32 v70,2013-09-11 17:00:00,
2013-09-11 13:10:00,79.0,66.6,29.68,ENE,67,12.0,17.0,66,0.00,,,0.00,Weather View 32 v70,2013-09-11 17:10:00,
2013-09-11 13:15:00,79.0,66.6,29.68,ENE,67,15.0,17.0,66,0.00,,,0.00,Weather View 32 v70,2013-09-11 17:15:00,
2013-09-11 13:20:00,79.0,66.6,29.69,ENE,67,13.0,17.0,66,0.00,,,0.00,Weather View 32 v70,2013-09-11 17:20:00,
2013-09-11 13:25:00,79.0,66.6,29.69,ENE,67,10.0,17.0,66,0.00,,,0.00,Weather View 32 v70,2013-09-11 17:25:00,
2013-09-11 13:30:00,79.0,66.6,29.68,ENE,67,13.0,17.0,66,0.00,,,0.00,Weather View 32 v70,2013-09-11 17:30:00,
2013-09-11 13:35:00,79.0,66.6,29.68,ENE,67,11.0,17.0,66,0.00,,,0.00,Weather View 32 v70,2013-09-11 17:35:00,
2013-09-11 13:40:00,79.0,67.1,29.69,ENE,67,12.0,17.0,67,0.00,,,0.00,Weather View 32 v70,2013-09-11 17:40:00,
2013-09-11 13:50:00,79.0,67.1,29.69,ENE,67,12.0,17.0,67,0.00,,,0.00,Weather View 32 v70,2013-09-11 17:50:00,
2013-09-11 13:55:00,79.0,66.6,29.69,ENE,67,13.0,17.0,66,0.00,,,0.00,Weather View 32 v70,2013-09-11 17:55:00,
2013-09-11 14:00:00,79.0,66.6,29.67,ENE,67,13.0,17.0,66,0.00,,,0.00,Weather View 32 v70,2013-09-11 18:00:00,
2013-09-11 14:05:00,79.0,67.1,29.67,ENE,67,13.0,17.0,67,0.00,,,0.00,Weather View 32 v70,2013-09-11 18:05:00,
2013-09-11 14:15:00,79.0,67.1,29.68,ENE,67,13.0,17.0,67,0.00,,,0.00,Weather View 32 v70,2013-09-11 18:15:00,
2013-09-11 14:20:00,79.0,67.1,29.66,ENE,67,12.0,16.0,67,0.00,,,0.00,Weather View 32 v70,2013-09-11 18:20:00,
2013-09-11 14:25:00,79.0,67.1,29.66,ENE,67,9.0,16.0,67,0.00,,,0.00,Weather View 32 v70,2013-09-11 18:25:00,
2013-09-11 14:30:00,79.0,67.1,29.66,ENE,67,7.0,16.0,67,0.00,,,0.00,Weather View 32 v70,2013-09-11 18:30:00,
2013-09-11 14:35:00,79.0,67.5,29.66,ENE,67,12.0,16.0,68,0.00,,,0.00,Weather View 32 v70,2013-09-11 18:35:00,
2013-09-11 14:45:00,79.0,67.1,29.65,ENE,67,12.0,16.0,67,0.00,,,0.00,Weather View 32 v70,2013-09-11 18:45:00,
2013-09-11 14:50:00,79.0,67.1,29.67,ENE,67,11.0,16.0,67,0.00,,,0.00,Weather View 32 v70,2013-09-11 18:50:00,
2013-09-11 14:55:00,79.0,67.5,29.67,ENE,67,9.0,16.0,68,0.00,,,0.00,Weather View 32 v70,2013-09-11 18:55:00,
2013-09-11 15:00:00,79.0,67.1,29.65,ENE,67,9.0,16.0,67,0.00,,,0.00,Weather View 32 v70,2013-09-11 19:00:00,
2013-09-11 15:05:00,79.0,67.5,29.65,ENE,67,7.0,15.0,68,0.00,,,0.00,Weather View 32 v70,2013-09-11 19:05:00,
2013-09-11 15:10:00,79.0,67.5,29.65,ENE,67,12.0,15.0,68,0.00,,,0.00,Weather View 32 v70,2013-09-11 19:10:00,
2013-09-11 15:15:00,79.0,67.9,29.65,ENE,67,9.0,15.0,69,0.00,,,0.00,Weather View 32 v70,2013-09-11 19:15:00,
2013-09-11 15:20:00,80.0,68.9,29.63,ENE,67,12.0,15.0,69,0.00,,,0.00,Weather View 32 v70,2013-09-11 19:20:00,
2013-09-11 15:25:00,80.0,69.3,29.63,ENE,67,10.0,15.0,70,0.00,,,0.00,Weather View 32 v70,2013-09-11 19:25:00,
2013-09-11 15:30:00,79.0,67.9,29.64,ENE,67,9.0,15.0,69,0.00,,,0.00,Weather View 32 v70,2013-09-11 19:30:00,
2013-09-11 15:40:00,80.0,68.9,29.64,ENE,67,10.0,15.0,69,0.00,,,0.00,Weather View 32 v70,2013-09-11 19:40:00,
2013-09-11 15:45:00,80.0,68.9,29.64,ENE,67,9.0,15.0,69,0.00,,,0.00,Weather View 32 v70,2013-09-11 19:45:00,
2013-09-11 15:50:00,80.0,68.9,29.66,ENE,67,10.0,15.0,69,0.00,,,0.00,Weather View 32 v70,2013-09-11 19:50:00,
2013-09-11 15:55:00,80.0,68.9,29.66,ENE,67,8.0,15.0,69,0.00,,,0.00,Weather View 32 v70,2013-09-11 19:55:00,
2013-09-11 16:00:00,80.0,68.9,29.65,ENE,67,12.0,15.0,69,0.00,,,0.00,Weather View 32 v70,2013-09-11 20:00:00,
2013-09-11 16:05:00,80.0,68.9,29.65,ENE,67,10.0,15.0,69,0.00,,,0.00,Weather View 32 v70,2013-09-11 20:05:00,
2013-09-11 16:10:00,80.0,68.9,29.65,ENE,67,9.0,15.0,69,0.00,,,0.00,Weather View 32 v70,2013-09-11 20:10:00,
2013-09-11 16:15:00,80.0,68.9,29.65,ENE,67,12.0,15.0,69,0.00,,,0.00,Weather View 32 v70,2013-09-11 20:15:00,
2013-09-11 16:20:00,79.0,67.9,29.65,ENE,67,9.0,15.0,69,0.00,,,0.00,Weather View 32 v70,2013-09-11 20:20:00,
2013-09-11 16:25:00,80.0,68.9,29.65,ENE,67,15.0,15.0,69,0.00,,,0.00,Weather View 32 v70,2013-09-11 20:25:00,
2013-09-11 16:35:00,80.0,68.9,29.63,ENE,67,11.0,16.0,69,0.00,,,0.00,Weather View 32 v70,2013-09-11 20:35:00,
2013-09-11 16:40:00,80.0,68.9,29.63,ENE,67,10.0,16.0,69,0.00,,,0.00,Weather View 32 v70,2013-09-11 20:40:00,
2013-09-11 16:45:00,80.0,68.9,29.63,ENE,67,9.0,16.0,69,0.00,,,0.00,Weather View 32 v70,2013-09-11 20:45:00,
2013-09-11 16:50:00,79.0,67.9,29.63,ENE,67,10.0,16.0,69,0.00,,,0.00,Weather View 32 v70,2013-09-11 20:50:00,
2013-09-11 16:55:00,79.0,67.9,29.63,ENE,67,9.0,16.0,69,0.00,,,0.00,Weather View 32 v70,2013-09-11 20:55:00,
2013-09-11 17:00:00,80.0,68.9,29.65,ENE,67,9.0,16.0,69,0.00,,,0.00,Weather View 32 v70,2013-09-11 21:00:00,
2013-09-11 17:07:00,80.0,68.9,29.65,ENE,67,9.0,16.0,69,0.00,,,0.00,Weather View 32 v70,2013-09-11 21:07:00,
2013-09-11 17:15:00,80.0,68.9,29.63,ENE,67,8.0,16.0,69,0.00,,,0.00,Weather View 32 v70,2013-09-11 21:15:00,
2013-09-11 17:20:00,80.0,69.3,29.65,SSE,157,11.0,16.0,70,0.00,,,0.00,Weather View 32 v70,2013-09-11 21:20:00,
2013-09-11 17:25:00,79.0,68.3,29.65,ENE,67,12.0,16.0,70,0.00,,,0.00,Weather View 32 v70,2013-09-11 21:25:00,
2013-09-11 17:30:00,79.0,68.3,29.63,ENE,67,12.0,15.0,70,0.00,,,0.00,Weather View 32 v70,2013-09-11 21:30:00,
2013-09-11 17:35:00,79.0,68.3,29.63,ENE,67,10.0,15.0,70,0.00,,,0.00,Weather View 32 v70,2013-09-11 21:35:00,
2013-09-11 17:40:00,79.0,68.3,29.63,ENE,67,9.0,14.0,70,0.00,,,0.00,Weather View 32 v70,2013-09-11 21:40:00,
2013-09-11 17:45:00,79.0,68.3,29.63,ENE,67,6.0,14.0,70,0.00,,,0.00,Weather View 32 v70,2013-09-11 21:45:00,
2013-09-11 17:50:00,79.0,68.3,29.62,ENE,67,8.0,14.0,70,0.00,,,0.00,Weather View 32 v70,2013-09-11 21:50:00,
2013-09-11 17:55:00,79.0,68.3,29.62,ENE,67,9.0,13.0,70,0.00,,,0.00,Weather View 32 v70,2013-09-11 21:55:00,
2013-09-11 18:00:00,79.0,68.3,29.62,ENE,67,7.0,13.0,70,0.00,,,0.00,Weather View 32 v70,2013-09-11 22:00:00,
2013-09-11 18:07:00,80.0,69.3,29.62,ENE,67,9.0,13.0,70,0.00,,,0.00,Weather View 32 v70,2013-09-11 22:07:00,
2013-09-11 18:15:00,79.0,68.3,29.63,ENE,67,8.0,13.0,70,0.00,,,0.00,Weather View 32 v70,2013-09-11 22:15:00,
2013-09-11 18:20:00,80.0,69.3,29.62,SSE,157,6.0,13.0,70,0.00,,,0.00,Weather View 32 v70,2013-09-11 22:20:00,
2013-09-11 18:30:00,80.0,69.7,29.63,ENE,67,7.0,12.0,71,0.00,,,0.00,Weather View 32 v70,2013-09-11 22:30:00,
2013-09-11 18:35:00,80.0,69.7,29.63,ENE,67,7.0,12.0,71,0.00,,,0.00,Weather View 32 v70,2013-09-11 22:35:00,
2013-09-11 18:40:00,80.0,69.7,29.63,ENE,67,7.0,12.0,71,0.00,,,0.00,Weather View 32 v70,2013-09-11 22:40:00,
2013-09-11 18:45:00,79.0,68.8,29.63,ENE,67,8.0,12.0,71,0.00,,,0.00,Weather View 32 v70,2013-09-11 22:45:00,
2013-09-11 18:50:00,79.0,68.8,29.60,ENE,67,5.0,12.0,71,0.00,,,0.00,Weather View 32 v70,2013-09-11 22:50:00,
2013-09-11 18:55:00,79.0,68.8,29.60,SSE,157,4.0,11.0,71,0.00,,,0.00,Weather View 32 v70,2013-09-11 22:55:00,
2013-09-11 19:05:00,79.0,68.8,29.64,SSE,157,7.0,10.0,71,0.00,,,0.00,Weather View 32 v70,2013-09-11 23:05:00,
2013-09-11 19:10:00,79.0,68.8,29.60,SSE,157,4.0,10.0,71,0.00,,,0.00,Weather View 32 v70,2013-09-11 23:10:00,
2013-09-11 19:15:00,79.0,68.8,29.60,SSE,157,6.0,10.0,71,0.00,,,0.00,Weather View 32 v70,2013-09-11 23:15:00,
2013-09-11 19:20:00,79.0,68.8,29.60,ENE,67,6.0,10.0,71,0.00,,,0.00,Weather View 32 v70,2013-09-11 23:20:00,
2013-09-11 19:25:00,79.0,68.8,29.60,SSE,157,3.0,10.0,71,0.00,,,0.00,Weather View 32 v70,2013-09-11 23:25:00,
2013-09-11 19:30:00,79.0,68.8,29.62,ENE,67,6.0,10.0,71,0.00,,,0.00,Weather View 32 v70,2013-09-11 23:30:00,
2013-09-11 19:35:00,79.0,68.8,29.62,SSE,157,6.0,10.0,71,0.00,,,0.00,Weather View 32 v70,2013-09-11 23:35:00,
2013-09-11 19:40:00,79.0,68.8,29.63,SSE,157,6.0,10.0,71,0.00,,,0.00,Weather View 32 v70,2013-09-11 23:40:00,
2013-09-11 19:45:00,79.0,68.8,29.63,SSE,157,7.0,10.0,71,0.00,,,0.00,Weather View 32 v70,2013-09-11 23:45:00,
2013-09-11 19:50:00,79.0,68.8,29.60,SSE,157,8.0,10.0,71,0.00,,,0.00,Weather View 32 v70,2013-09-11 23:50:00,
2013-09-11 20:00:00,79.0,68.8,29.63,SSE,157,6.0,10.0,71,0.00,,,0.00,Weather View 32 v70,2013-09-12 00:00:00,
2013-09-11 20:05:00,79.0,68.8,29.63,SSE,157,8.0,11.0,71,0.00,,,0.00,Weather View 32 v70,2013-09-12 00:05:00,
2013-09-11 20:10:00,79.0,68.8,29.61,SSE,157,4.0,11.0,71,0.00,,,0.00,Weather View 32 v70,2013-09-12 00:10:00,
2013-09-11 20:15:00,79.0,68.8,29.61,SSE,157,6.0,11.0,71,0.00,,,0.00,Weather View 32 v70,2013-09-12 00:15:00,
2013-09-11 20:20:00,79.0,68.8,29.61,ENE,67,9.0,11.0,71,0.00,,,0.00,Weather View 32 v70,2013-09-12 00:20:00,
2013-09-11 20:25:00,79.0,68.8,29.61,SSE,157,7.0,11.0,71,0.00,,,0.00,Weather View 32 v70,2013-09-12 00:25:00,
2013-09-11 20:30:00,79.0,68.8,29.63,ENE,67,7.0,11.0,71,0.00,,,0.00,Weather View 32 v70,2013-09-12 00:30:00,
2013-09-11 20:35:00,79.0,68.8,29.63,ENE,67,8.0,11.0,71,0.00,,,0.00,Weather View 32 v70,2013-09-12 00:35:00,
2013-09-11 20:40:00,79.0,68.8,29.60,SSE,157,7.0,12.0,71,0.00,,,0.00,Weather View 32 v70,2013-09-12 00:40:00,
2013-09-11 20:45:00,79.0,68.8,29.60,SSE,157,5.0,12.0,71,0.00,,,0.00,Weather View 32 v70,2013-09-12 00:45:00,
2013-09-11 20:50:00,79.0,68.8,29.63,SSE,157,4.0,12.0,71,0.00,,,0.00,Weather View 32 v70,2013-09-12 00:50:00,
2013-09-11 21:00:00,79.0,68.8,29.61,SSE,157,6.0,12.0,71,0.00,,,0.00,Weather View 32 v70,2013-09-12 01:00:00,
2013-09-11 21:05:00,78.0,67.8,29.61,SSE,157,2.0,12.0,71,0.00,,,0.00,Weather View 32 v70,2013-09-12 01:05:00,
2013-09-11 21:10:00,78.0,67.8,29.63,SSE,157,5.0,12.0,71,0.00,,,0.00,Weather View 32 v70,2013-09-12 01:10:00,
2013-09-11 21:15:00,78.0,67.4,29.63,SSE,157,6.0,12.0,70,0.00,,,0.00,Weather View 32 v70,2013-09-12 01:15:00,
2013-09-11 21:20:00,78.0,67.4,29.61,SSE,157,4.0,12.0,70,0.00,,,0.00,Weather View 32 v70,2013-09-12 01:20:00,
2013-09-11 21:25:00,78.0,67.4,29.61,SSE,157,6.0,12.0,70,0.00,,,0.00,Weather View 32 v70,2013-09-12 01:25:00,
2013-09-11 21:30:00,78.0,67.4,29.61,SSE,157,6.0,12.0,70,0.00,,,0.00,Weather View 32 v70,2013-09-12 01:30:00,
2013-09-11 21:35:00,78.0,67.4,29.61,SSE,157,2.0,12.0,70,0.00,,,0.00,Weather View 32 v70,2013-09-12 01:35:00,
2013-09-11 21:40:00,78.0,67.4,29.61,SSE,157,3.0,12.0,70,0.00,,,0.00,Weather View 32 v70,2013-09-12 01:40:00,
2013-09-11 21:45:00,78.0,67.4,29.61,SSE,157,3.0,9.0,70,0.00,,,0.00,Weather View 32 v70,2013-09-12 01:45:00,
2013-09-11 21:55:00,77.0,66.0,29.61,WSW,247,6.0,9.0,69,0.00,,,0.00,Weather View 32 v70,2013-09-12 01:55:00,
2013-09-11 22:00:00,77.0,65.2,29.62,WSW,247,6.0,9.0,67,0.00,,,0.00,Weather View 32 v70,2013-09-12 02:00:00,
2013-09-11 22:09:00,76.0,64.2,29.62,WSW,247,6.0,7.0,67,0.00,,,0.00,Weather View 32 v70,2013-09-12 02:09:00,
2013-09-11 22:15:00,76.0,63.8,29.65,NNW,337,3.0,7.0,66,0.00,,,0.00,Weather View 32 v70,2013-09-12 02:15:00,
2013-09-11 22:20:00,75.0,61.5,29.63,NNW,337,5.0,7.0,63,0.00,,,0.00,Weather View 32 v70,2013-09-12 02:20:00,
2013-09-11 22:25:00,75.0,61.5,29.63,NNW,337,3.0,7.0,63,0.00,,,0.00,Weather View 32 v70,2013-09-12 02:25:00,
2013-09-11 22:30:00,75.0,61.1,29.63,NNW,337,6.0,7.0,62,0.00,,,0.00,Weather View 32 v70,2013-09-12 02:30:00,
2013-09-11 22:35:00,75.0,60.6,29.63,NNW,337,3.0,7.0,61,0.00,,,0.00,Weather View 32 v70,2013-09-12 02:35:00,
2013-09-11 22:45:00,74.0,59.7,29.65,NNW,337,0.0,7.0,61,0.00,,,0.00,Weather View 32 v70,2013-09-12 02:45:00,
2013-09-11 22:50:00,74.0,59.2,29.63,NNW,337,0.0,7.0,60,0.00,,,0.00,Weather View 32 v70,2013-09-12 02:50:00,
2013-09-11 22:55:00,74.0,59.2,29.63,NNW,337,0.0,7.0,60,0.00,,,0.00,Weather View 32 v70,2013-09-12 02:55:00,
2013-09-11 23:00:00,74.0,59.2,29.64,NNW,337,0.0,7.0,60,0.00,,,0.00,Weather View 32 v70,2013-09-12 03:00:00,
2013-09-11 23:05:00,74.0,59.2,29.64,NNW,337,0.0,7.0,60,0.00,,,0.00,Weather View 32 v70,2013-09-12 03:05:00,
2013-09-11 23:10:00,74.0,58.7,29.65,NNW,337,3.0,7.0,59,0.00,,,0.00,Weather View 32 v70,2013-09-12 03:10:00,
2013-09-11 23:20:00,74.0,58.2,29.63,NNW,337,3.0,7.0,58,0.00,,,0.00,Weather View 32 v70,2013-09-12 03:20:00,
2013-09-11 23:25:00,74.0,58.2,29.63,NNW,337,3.0,7.0,58,0.00,,,0.00,Weather View 32 v70,2013-09-12 03:25:00,
2013-09-11 23:35:00,74.0,58.2,29.63,NNW,337,1.0,6.0,58,0.00,,,0.00,Weather View 32 v70,2013-09-12 03:35:00,
2013-09-11 23:40:00,74.0,57.8,29.63,NNW,337,3.0,5.0,57,0.00,,,0.00,Weather View 32 v70,2013-09-12 03:40:00,
2013-09-11 23:45:00,74.0,57.3,29.63,NNW,337,4.0,5.0,56,0.00,,,0.00,Weather View 32 v70,2013-09-12 03:45:00,
2013-09-11 23:50:00,74.0,57.3,29.64,NNW,337,3.0,5.0,56,0.00,,,0.00,Weather View 32 v70,2013-09-12 03:50:00,
2013-09-11 23:55:00,74.0,57.3,29.64,NNW,337,3.0,5.0,56,0.00,,,0.00,Weather View 32 v70,2013-09-12 03:55:00,